IDPK1: Verdigris River, Independence

                                SHEF ID:       IDPK1     VERDIGRIS R AT INDEPENDENCE, KS
STATION TYPE:
Regulating: Stage = 30.00, Flow = 23488

PRECIP STAGE RIV-FLOW BAT-LOAD
in ft cfs volt
Ccp-Rev Ccp-Rev Ccp-Rev Ccp-Rev
(America/Chicago)
02/15 00:00 0.00 3.64 615 12.43
02/15 01:00 0.00 3.62 608 12.42
02/15 02:00 0.00 3.61 605 12.42
02/15 03:00 0.00 3.61 605 12.40
02/15 04:00 0.00 3.63 611 12.41
02/15 05:00 0.00 3.65 618 12.41
02/15 06:00 0.00 3.67 624 12.41
02/15 07:00 0.00 3.70 633 12.40
02/15 08:00 0.00 3.73 643 12.40
02/15 09:00 0.00 3.77 656 12.43
02/15 10:00 0.00 3.82 672 12.73
02/15 11:00 0.00 3.89 695 13.13
02/15 12:00 0.00 3.97 721 13.24
02/15 13:00 0.00 4.06 751 13.34
02/15 14:00 0.00 4.15 782 13.13
02/15 15:00 0.00 4.29 831 13.09
02/15 16:00 0.00 4.42 877 13.07
02/15 17:00 0.00 4.55 923 13.06
02/15 18:00 0.00 4.69 970 13.02
02/15 19:00 0.00 4.81 1012 12.77
02/15 20:00 0.00 4.94 1057 12.70
02/15 21:00 0.00 5.03 1089 12.67
02/15 22:00 0.00 5.10 1114 12.62
02/15 23:00 0.00 5.16 1136 12.59
Data processed at Mon 16Feb2026 05:05 GMT

NOTICE: If you are parsing this page

Please convert to using our Data API. Starting early 2026 we will be migrating to: https://water.usace.army.mil with modern pages rendered in JavaScript. When this migration completes you will no longer be able to scrape this page! CWMSDataAPI (CDA)

Timeseries IDs (TSIDs)

TSIDs used from left to right in the data table
INDP.Precip-Inc.Total.1Hour.1Hour.Ccp-Rev
INDP.Stage.Inst.1Hour.0.Ccp-Rev
INDP.Flow.Inst.1Hour.0.Ccp-Rev
INDP.Volt-Battery Load.Inst.1Hour.0.Ccp-Rev

                            

All information presented herein is the property of the government of the United States of America and may be revised or deleted at any time without prior notice. Dissemination of this information without the expressed written consent of the Public Affairs Office, Tulsa District U.S. Army Corps of Engineers is strictly prohibited. These data are gathered electronically and, as presented, have NOT undergone any form of quality control. These data are NOT guaranteed to be valid or correct.